createdAt,value
2023-02-19T00:01:39.287Z,82.30
2023-02-19T00:04:12.570Z,82.15
2023-02-19T00:06:42.934Z,81.52
2023-02-19T00:09:16.146Z,82.48
2023-02-19T00:11:46.528Z,82.42
2023-02-19T00:14:19.696Z,82.13
2023-02-19T00:16:49.652Z,81.85
2023-02-19T00:19:21.647Z,81.64
2023-02-19T00:21:53.510Z,81.78
2023-02-19T00:24:25.063Z,82.38
2023-02-19T00:26:54.580Z,82.20
2023-02-19T00:29:25.268Z,82.03
2023-02-19T00:31:54.790Z,82.93
2023-02-19T00:34:24.390Z,83.10
2023-02-19T00:36:53.738Z,82.33
2023-02-19T00:39:24.730Z,81.71
2023-02-19T00:41:54.255Z,81.64
2023-02-19T00:44:23.871Z,80.06
2023-02-19T00:46:53.251Z,80.37
2023-02-19T00:50:37.799Z,79.41
2023-02-19T00:53:07.378Z,79.45
2023-02-19T00:55:36.773Z,78.93
2023-02-19T00:58:06.057Z,78.83
2023-02-19T01:00:35.372Z,78.18
2023-02-19T01:03:04.732Z,78.63
2023-02-19T01:05:34.113Z,79.83
2023-02-19T01:08:04.980Z,79.61
2023-02-19T01:10:34.321Z,80.07
2023-02-19T01:13:03.691Z,80.43
2023-02-19T01:15:34.935Z,80.88
2023-02-19T01:18:04.346Z,80.72
2023-02-19T01:20:34.098Z,81.58
2023-02-19T01:23:05.557Z,82.06
2023-02-19T01:25:34.906Z,82.06
2023-02-19T01:28:04.352Z,82.59
2023-02-19T01:30:37.265Z,83.20
2023-02-19T01:33:06.756Z,82.84
2023-02-19T01:35:36.325Z,81.99
2023-02-19T01:38:08.562Z,81.89
2023-02-19T01:40:38.134Z,81.99
2023-02-19T01:43:11.727Z,81.76
2023-02-19T01:45:45.186Z,82.06
2023-02-19T01:48:20.512Z,82.04
2023-02-19T01:50:55.262Z,82.31
2023-02-19T01:53:29.619Z,82.87
2023-02-19T01:56:02.441Z,84.27
2023-02-19T01:58:35.330Z,83.84
2023-02-19T02:01:08.244Z,84.20
2023-02-19T02:03:40.896Z,84.66
2023-02-19T02:06:19.026Z,83.53
2023-02-19T02:09:08.228Z,84.08
2023-02-19T02:11:38.539Z,84.29
2023-02-19T02:14:07.968Z,83.60
2023-02-19T02:16:50.401Z,82.41
2023-02-19T02:19:52.578Z,82.21
2023-02-19T02:22:28.194Z,84.56
2023-02-19T02:25:42.412Z,83.87
2023-02-19T02:28:48.151Z,82.30
2023-02-19T02:31:21.875Z,82.48
2023-02-19T02:34:00.366Z,82.97
2023-02-19T02:36:34.266Z,83.97
2023-02-19T02:39:07.492Z,82.66
2023-02-19T02:41:37.045Z,83.40
2023-02-19T02:44:06.856Z,83.41
2023-02-19T02:46:42.745Z,83.21
2023-02-19T02:49:21.356Z,83.34
2023-02-19T02:51:55.238Z,83.40
2023-02-19T02:54:46.715Z,83.37
2023-02-19T02:57:17.696Z,83.60
2023-02-19T02:59:49.310Z,83.21
2023-02-19T03:02:24.590Z,83.45
2023-02-19T03:05:26.314Z,83.91
2023-02-19T03:08:00.354Z,83.31
2023-02-19T03:10:38.302Z,85.42
2023-02-19T03:13:29.410Z,84.95
2023-02-19T03:16:23.719Z,84.41
2023-02-19T03:19:14.924Z,85.14
2023-02-19T03:21:47.141Z,84.61
2023-02-19T03:24:36.372Z,84.83
2023-02-19T03:27:07.468Z,84.92
2023-02-19T03:29:40.190Z,85.08
2023-02-19T03:32:13.228Z,85.23
2023-02-19T03:34:53.296Z,85.41
2023-02-19T03:37:31.433Z,85.58
2023-02-19T03:40:01.074Z,85.95
2023-02-19T03:42:44.468Z,85.69
2023-02-19T03:45:34.499Z,86.73
2023-02-19T03:51:45.308Z,87.04
2023-02-19T03:54:20.370Z,86.66
2023-02-19T03:56:55.949Z,86.85
2023-02-19T03:59:34.650Z,86.66
2023-02-19T04:02:10.112Z,86.50
2023-02-19T04:04:45.212Z,85.95
2023-02-19T04:07:16.494Z,86.92
2023-02-19T04:09:50.072Z,86.31
2023-02-19T04:12:23.554Z,86.08
2023-02-19T04:14:58.987Z,86.10
2023-02-19T04:17:33.861Z,86.63
2023-02-19T04:20:08.979Z,87.53
2023-02-19T04:22:41.619Z,86.52
2023-02-19T04:25:11.931Z,87.18
2023-02-19T04:27:42.499Z,86.80
2023-02-19T04:30:15.816Z,87.37
2023-02-19T04:32:45.184Z,86.95
2023-02-19T04:35:14.573Z,87.03
2023-02-19T04:37:45.502Z,86.42
2023-02-19T04:40:14.923Z,87.58
2023-02-19T04:42:44.376Z,86.85
2023-02-19T04:45:13.768Z,86.79
2023-02-19T04:47:43.183Z,87.21
2023-02-19T04:50:13.034Z,86.62
2023-02-19T04:52:43.874Z,86.51
2023-02-19T04:55:13.512Z,86.30
2023-02-19T04:57:42.839Z,87.51
2023-02-19T05:00:13.991Z,87.08
2023-02-19T05:02:43.847Z,87.08
2023-02-19T05:05:13.197Z,87.00
2023-02-19T05:07:44.039Z,87.50
2023-02-19T05:10:13.359Z,86.34
2023-02-19T05:12:42.747Z,86.35
2023-02-19T05:15:12.174Z,85.30
2023-02-19T05:17:41.652Z,85.11
2023-02-19T05:20:12.306Z,86.23
2023-02-19T05:22:41.908Z,84.37
2023-02-19T05:25:12.678Z,84.68
2023-02-19T05:27:42.179Z,84.56
2023-02-19T05:30:13.630Z,83.83
2023-02-19T05:32:43.167Z,83.63
2023-02-19T05:35:12.501Z,84.25
2023-02-19T05:37:41.927Z,85.44
2023-02-19T05:40:13.461Z,84.91
2023-02-19T05:42:42.830Z,84.70
2023-02-19T05:45:12.267Z,84.92
2023-02-19T05:47:41.632Z,85.57
2023-02-19T05:50:11.189Z,83.90
2023-02-19T05:52:40.510Z,84.47
2023-02-19T05:55:11.855Z,84.46
2023-02-19T05:57:43.819Z,84.97
2023-02-19T06:00:15.297Z,83.77
2023-02-19T06:02:44.823Z,82.85
2023-02-19T06:05:14.876Z,81.71
2023-02-19T06:07:44.272Z,82.21
2023-02-19T06:10:15.528Z,82.28
2023-02-19T06:12:45.254Z,82.25
2023-02-19T06:15:14.688Z,81.41
2023-02-19T06:17:43.987Z,80.76
2023-02-19T06:20:13.737Z,80.44
2023-02-19T06:22:43.141Z,79.51
2023-02-19T06:25:14.047Z,79.74
2023-02-19T06:27:43.301Z,79.07
2023-02-19T06:30:14.693Z,78.58
2023-02-19T06:32:43.970Z,78.11
2023-02-19T06:35:13.434Z,77.18
2023-02-19T06:37:42.793Z,76.84
2023-02-19T06:40:14.390Z,76.28
2023-02-19T06:42:43.654Z,75.80
2023-02-19T06:45:13.014Z,74.33
2023-02-19T06:47:42.393Z,73.33
2023-02-19T06:51:37.954Z,71.97
2023-02-19T06:54:07.475Z,71.82
2023-02-19T06:56:39.760Z,70.89
2023-02-19T06:59:12.836Z,69.78
2023-02-19T07:01:43.093Z,69.34
2023-02-19T07:04:12.935Z,68.06
2023-02-19T07:06:43.854Z,67.16
2023-02-19T07:09:13.797Z,66.49
2023-02-19T07:11:43.454Z,65.95
2023-02-19T07:14:17.967Z,64.37
2023-02-19T07:16:48.115Z,63.56
2023-02-19T07:19:18.129Z,63.39
2023-02-19T07:21:48.992Z,62.69
2023-02-19T07:24:19.349Z,61.84
2023-02-19T07:26:48.753Z,62.33
2023-02-19T07:29:18.590Z,61.78
2023-02-19T07:31:48.872Z,61.34
2023-02-19T07:34:18.215Z,61.20
2023-02-19T07:36:49.146Z,60.47
2023-02-19T07:39:18.641Z,59.11
2023-02-19T07:41:48.099Z,59.55
2023-02-19T07:44:17.635Z,58.04
2023-02-19T07:46:47.492Z,58.06
2023-02-19T07:49:16.884Z,57.70
2023-02-19T07:51:47.895Z,58.01
2023-02-19T07:54:17.792Z,57.32
2023-02-19T07:56:47.353Z,57.64
2023-02-19T07:59:19.634Z,57.76
2023-02-19T08:02:20.917Z,57.74
2023-02-19T08:04:50.485Z,57.67
2023-02-19T08:07:21.281Z,57.62
2023-02-19T08:10:10.840Z,56.85
2023-02-19T08:12:57.565Z,56.45
2023-02-19T08:15:27.196Z,56.08
2023-02-19T08:17:56.744Z,54.92
2023-02-19T08:20:26.224Z,53.89
2023-02-19T08:22:57.270Z,53.79
2023-02-19T08:25:27.250Z,53.94
2023-02-19T08:27:56.834Z,53.79
2023-02-19T08:30:26.428Z,52.89
2023-02-19T08:32:56.306Z,53.15
2023-02-19T08:35:25.770Z,53.29
2023-02-19T08:38:00.157Z,52.99
2023-02-19T08:40:29.752Z,52.42
2023-02-19T08:43:05.156Z,51.85
2023-02-19T08:45:35.120Z,52.22
2023-02-19T08:48:04.735Z,51.83
2023-02-19T08:50:35.443Z,50.33
2023-02-19T08:53:08.009Z,50.28
2023-02-19T08:55:39.026Z,50.50
2023-02-19T08:58:08.623Z,49.86
2023-02-19T09:00:38.026Z,50.42
2023-02-19T09:03:07.598Z,50.07
2023-02-19T09:05:37.052Z,49.77
2023-02-19T09:08:08.089Z,49.68
2023-02-19T09:10:37.717Z,49.68
2023-02-19T09:13:07.647Z,50.25
2023-02-19T09:15:38.845Z,48.80
2023-02-19T09:18:08.365Z,49.73
2023-02-19T09:20:37.816Z,47.91
2023-02-19T09:23:08.755Z,48.44
2023-02-19T09:25:38.197Z,49.15
2023-02-19T09:28:07.644Z,48.99
2023-02-19T09:30:37.199Z,48.67
2023-02-19T09:33:08.032Z,48.23
2023-02-19T09:35:40.948Z,48.21
2023-02-19T09:38:11.870Z,47.40
2023-02-19T09:40:42.151Z,47.71
2023-02-19T09:43:18.420Z,48.66
2023-02-19T09:45:48.119Z,47.59
2023-02-19T09:51:42.215Z,47.56
2023-02-19T09:54:20.179Z,46.71
2023-02-19T09:56:49.973Z,47.13
2023-02-19T09:59:23.727Z,46.53
2023-02-19T10:02:01.133Z,47.45
2023-02-19T10:04:30.710Z,47.75
2023-02-19T10:07:03.915Z,47.59
2023-02-19T10:09:33.720Z,48.10
2023-02-19T10:12:03.686Z,46.77
2023-02-19T10:14:40.237Z,48.10
2023-02-19T10:17:22.383Z,46.00
2023-02-19T10:19:52.155Z,46.63
2023-02-19T10:22:23.205Z,47.43
2023-02-19T10:24:56.763Z,46.71
2023-02-19T10:27:32.169Z,47.89
2023-02-19T10:30:03.236Z,47.62
2023-02-19T10:32:32.729Z,47.98
2023-02-19T10:35:19.849Z,47.78
2023-02-19T10:37:52.976Z,48.62
2023-02-19T10:40:26.283Z,48.04
2023-02-19T10:42:59.417Z,48.59
2023-02-19T10:45:36.862Z,47.07
2023-02-19T10:48:07.707Z,47.36
2023-02-19T10:50:44.828Z,47.91
2023-02-19T10:53:24.900Z,47.65
2023-02-19T10:56:10.750Z,47.37
2023-02-19T10:58:42.527Z,47.22
2023-02-19T11:01:20.168Z,47.45
2023-02-19T11:03:51.634Z,46.83
2023-02-19T11:06:28.238Z,47.87
2023-02-19T11:09:02.044Z,45.98
2023-02-19T11:11:35.914Z,47.70
2023-02-19T11:14:15.091Z,45.10
2023-02-19T11:16:48.133Z,46.75
2023-02-19T11:19:32.752Z,44.14
2023-02-19T11:22:04.355Z,46.82
2023-02-19T11:24:38.324Z,46.29
2023-02-19T11:27:19.732Z,46.92
2023-02-19T11:29:49.569Z,47.02
2023-02-19T11:32:31.530Z,47.56
2023-02-19T11:35:22.805Z,46.43
2023-02-19T11:38:00.631Z,47.10
2023-02-19T11:40:42.798Z,47.14
2023-02-19T11:43:31.551Z,45.68
2023-02-19T11:46:09.793Z,46.39
2023-02-19T11:48:56.144Z,47.46
2023-02-19T11:51:47.618Z,46.51
2023-02-19T11:54:51.199Z,46.24
2023-02-19T11:57:45.943Z,45.24
2023-02-19T12:00:26.650Z,46.52
2023-02-19T12:03:37.094Z,45.29
2023-02-19T12:06:21.208Z,46.52
2023-02-19T12:09:14.498Z,44.74
2023-02-19T12:12:17.330Z,45.96
2023-02-19T12:15:41.494Z,45.83
2023-02-19T12:19:01.411Z,45.69
2023-02-19T12:21:51.726Z,45.85
2023-02-19T12:25:05.208Z,46.07
2023-02-19T12:27:56.424Z,47.26
2023-02-19T12:30:55.049Z,47.60
2023-02-19T12:34:19.676Z,46.54
2023-02-19T12:37:02.132Z,47.94
2023-02-19T12:39:41.714Z,47.94
2023-02-19T12:42:29.936Z,47.66
2023-02-19T12:45:04.504Z,47.43
2023-02-19T12:47:42.318Z,46.99
2023-02-19T12:51:45.309Z,47.46
2023-02-19T12:54:23.963Z,47.72
2023-02-19T12:57:02.768Z,47.37
2023-02-19T12:59:38.555Z,46.11
2023-02-19T13:02:17.946Z,46.71
2023-02-19T13:04:56.242Z,45.83
2023-02-19T13:07:33.879Z,46.24
2023-02-19T13:10:20.824Z,46.24
2023-02-19T13:12:53.733Z,45.64
2023-02-19T13:15:32.910Z,45.49
2023-02-19T13:18:06.630Z,45.91
2023-02-19T13:20:40.422Z,46.35
2023-02-19T13:23:35.062Z,44.94
2023-02-19T13:26:44.708Z,46.17
2023-02-19T13:29:41.174Z,45.49
2023-02-19T13:32:35.923Z,45.42
2023-02-19T13:35:25.839Z,46.22
2023-02-19T13:37:56.982Z,46.86
2023-02-19T13:40:35.191Z,47.07
2023-02-19T13:43:07.322Z,45.31
2023-02-19T13:45:41.516Z,46.80
2023-02-19T13:48:28.575Z,46.09
2023-02-19T13:51:49.555Z,46.67
2023-02-19T13:54:29.249Z,45.44
2023-02-19T13:57:30.193Z,46.28
2023-02-19T14:00:01.120Z,47.18
2023-02-19T14:02:36.585Z,46.89
2023-02-19T14:05:10.241Z,46.89
2023-02-19T14:08:04.450Z,46.96
2023-02-19T14:11:05.149Z,46.42
2023-02-19T14:14:10.114Z,46.63
2023-02-19T14:17:08.668Z,46.53
2023-02-19T14:19:54.275Z,47.33
2023-02-19T14:23:11.053Z,47.10
2023-02-19T14:25:48.267Z,45.77
2023-02-19T14:28:37.215Z,46.89
2023-02-19T14:31:36.892Z,47.31
2023-02-19T14:34:15.231Z,47.46
2023-02-19T14:36:49.133Z,46.97
2023-02-19T14:39:22.578Z,47.62
2023-02-19T14:41:55.969Z,47.95
2023-02-19T14:44:28.829Z,47.75
2023-02-19T14:47:06.951Z,47.96
2023-02-19T14:49:46.028Z,48.06
2023-02-19T14:52:24.938Z,48.10
2023-02-19T14:54:58.830Z,48.25
2023-02-19T14:57:31.421Z,48.70
2023-02-19T15:00:01.634Z,48.19
2023-02-19T15:02:33.891Z,48.67
2023-02-19T15:05:03.429Z,49.27
2023-02-19T15:07:35.792Z,49.78
2023-02-19T15:10:07.515Z,49.44
2023-02-19T15:12:53.935Z,50.13
2023-02-19T15:15:27.205Z,50.69
2023-02-19T15:18:00.614Z,50.62
2023-02-19T15:20:34.416Z,50.50
2023-02-19T15:23:07.507Z,49.68
2023-02-19T15:25:39.508Z,50.34
2023-02-19T15:28:27.571Z,50.64
2023-02-19T15:31:15.882Z,51.02
2023-02-19T15:33:54.570Z,51.34
2023-02-19T15:36:32.891Z,51.98
2023-02-19T15:39:04.995Z,52.63
2023-02-19T15:41:36.959Z,53.52
2023-02-19T15:44:32.610Z,53.42
2023-02-19T15:47:09.384Z,54.03
2023-02-19T15:51:45.012Z,55.25
2023-02-19T15:54:27.214Z,55.92
2023-02-19T15:57:01.466Z,55.61
2023-02-19T15:59:37.834Z,55.67
2023-02-19T16:02:09.932Z,56.60
2023-02-19T16:04:46.446Z,56.87
2023-02-19T16:07:29.035Z,57.42
2023-02-19T16:10:21.579Z,58.24
2023-02-19T16:13:01.897Z,58.54
2023-02-19T16:15:34.559Z,58.67
2023-02-19T16:18:04.506Z,59.06
2023-02-19T16:20:37.053Z,59.46
2023-02-19T16:23:15.939Z,59.76
2023-02-19T16:25:46.611Z,60.14
2023-02-19T16:28:22.320Z,60.78
2023-02-19T16:30:59.701Z,61.18
2023-02-19T16:33:46.515Z,61.94
2023-02-19T16:36:38.055Z,61.93
2023-02-19T16:39:23.271Z,61.93
2023-02-19T16:42:20.060Z,62.47
2023-02-19T16:44:50.445Z,62.80
2023-02-19T16:47:33.061Z,63.62
2023-02-19T16:50:09.092Z,63.26
2023-02-19T16:52:42.519Z,63.89
2023-02-19T16:55:16.333Z,64.48
2023-02-19T16:57:45.744Z,64.93
2023-02-19T17:00:20.496Z,65.01
2023-02-19T17:02:52.373Z,65.67
2023-02-19T17:05:24.196Z,65.80
2023-02-19T17:07:53.897Z,66.05
2023-02-19T17:10:27.280Z,65.98
2023-02-19T17:12:58.373Z,66.14
2023-02-19T17:15:27.993Z,65.93
2023-02-19T17:17:57.610Z,66.18
2023-02-19T17:20:31.666Z,66.64
2023-02-19T17:23:01.212Z,66.81
2023-02-19T17:25:32.295Z,67.23
2023-02-19T17:28:01.891Z,67.19
2023-02-19T17:30:33.304Z,67.56
2023-02-19T17:33:02.873Z,67.91
2023-02-19T17:35:32.276Z,68.51
2023-02-19T17:38:01.713Z,69.15
2023-02-19T17:40:34.660Z,69.12
2023-02-19T17:43:04.297Z,68.80
2023-02-19T17:45:33.948Z,69.19
2023-02-19T17:48:03.581Z,69.48
2023-02-19T17:50:34.573Z,69.59
2023-02-19T17:53:03.906Z,69.68
2023-02-19T17:55:34.839Z,69.92
2023-02-19T17:58:04.243Z,69.76
2023-02-19T18:00:34.550Z,69.58
2023-02-19T18:03:03.989Z,69.93
2023-02-19T18:05:33.330Z,70.34
2023-02-19T18:08:02.786Z,70.58
2023-02-19T18:10:33.593Z,70.29
2023-02-19T18:13:02.973Z,70.92
2023-02-19T18:15:32.433Z,71.09
2023-02-19T18:18:02.514Z,71.27
2023-02-19T18:20:32.408Z,71.32
2023-02-19T18:23:01.876Z,71.50
2023-02-19T18:25:31.343Z,72.08
2023-02-19T18:28:02.519Z,72.14
2023-02-19T18:30:32.917Z,72.69
2023-02-19T18:33:02.439Z,72.98
2023-02-19T18:35:33.646Z,72.99
2023-02-19T18:38:04.134Z,73.09
2023-02-19T18:40:33.457Z,73.22
2023-02-19T18:43:04.350Z,73.09
2023-02-19T18:45:36.298Z,73.24
2023-02-19T18:51:37.944Z,74.04
2023-02-19T18:54:08.154Z,74.01
2023-02-19T18:56:44.530Z,73.76
2023-02-19T18:59:14.844Z,73.85
2023-02-19T19:01:45.199Z,74.19
2023-02-19T19:04:14.958Z,74.47
2023-02-19T19:06:45.872Z,75.06
2023-02-19T19:09:15.487Z,74.80
2023-02-19T19:11:46.821Z,74.96
2023-02-19T19:14:16.555Z,74.83
2023-02-19T19:16:46.039Z,75.00
2023-02-19T19:19:16.704Z,75.27
2023-02-19T19:21:53.227Z,75.73
2023-02-19T19:24:24.053Z,75.06
2023-02-19T19:26:54.626Z,75.29
2023-02-19T19:29:24.880Z,75.37
2023-02-19T19:31:54.378Z,75.44
2023-02-19T19:34:23.883Z,75.61
2023-02-19T19:36:54.832Z,75.96
2023-02-19T19:39:24.505Z,76.27
2023-02-19T19:41:57.236Z,76.86
2023-02-19T19:44:26.414Z,77.65
2023-02-19T19:46:56.530Z,77.75
2023-02-19T19:49:25.976Z,78.44
2023-02-19T19:52:01.350Z,76.88
2023-02-19T19:54:31.118Z,77.23
2023-02-19T19:57:00.620Z,77.52
2023-02-19T19:59:30.044Z,76.78
2023-02-19T20:02:02.017Z,77.98
2023-02-19T20:04:32.080Z,77.22
2023-02-19T20:07:03.419Z,77.56
2023-02-19T20:09:32.853Z,79.26
2023-02-19T20:12:02.260Z,78.16
2023-02-19T20:14:31.684Z,79.72
2023-02-19T20:17:01.176Z,80.34
2023-02-19T20:19:30.533Z,81.35
2023-02-19T20:22:01.556Z,80.96
2023-02-19T20:24:31.304Z,78.57
2023-02-19T20:27:03.129Z,76.41
2023-02-19T20:29:34.557Z,75.14
2023-02-19T20:32:04.827Z,72.56
2023-02-19T20:34:34.631Z,71.48
2023-02-19T20:37:05.660Z,70.65
2023-02-19T20:39:38.113Z,69.81
2023-02-19T20:42:08.679Z,69.58
2023-02-19T20:44:38.129Z,69.56
2023-02-19T20:47:07.993Z,69.90
2023-02-19T20:49:37.441Z,69.54
2023-02-19T20:52:10.212Z,70.11
2023-02-19T20:54:39.749Z,69.66
2023-02-19T20:57:09.079Z,69.04
2023-02-19T20:59:39.111Z,68.92
2023-02-19T21:02:23.379Z,69.32
2023-02-19T21:04:53.024Z,69.15
2023-02-19T21:07:23.892Z,68.62
2023-02-19T21:09:53.930Z,68.53
2023-02-19T21:12:24.171Z,69.67
2023-02-19T21:14:53.744Z,69.11
2023-02-19T21:17:23.282Z,69.59
2023-02-19T21:19:52.640Z,70.09
2023-02-19T21:22:23.408Z,70.48
2023-02-19T21:24:53.919Z,69.53
2023-02-19T21:27:23.416Z,69.17
2023-02-19T21:29:52.938Z,69.12
2023-02-19T21:32:22.410Z,69.34
2023-02-19T21:34:51.860Z,69.52
2023-02-19T21:37:22.842Z,70.29
2023-02-19T21:39:52.483Z,70.93
2023-02-19T21:42:21.947Z,70.94
2023-02-19T21:44:51.431Z,71.81
2023-02-19T21:47:20.783Z,72.04
2023-02-19T21:51:40.173Z,72.45
2023-02-19T21:54:14.856Z,72.82
2023-02-19T21:56:44.693Z,73.35
2023-02-19T21:59:14.227Z,73.88
2023-02-19T22:01:43.848Z,74.64
2023-02-19T22:04:16.438Z,74.79
2023-02-19T22:06:47.746Z,75.17
2023-02-19T22:09:18.138Z,75.66
2023-02-19T22:11:47.891Z,75.70
2023-02-19T22:14:18.481Z,76.24
2023-02-19T22:16:48.152Z,76.35
2023-02-19T22:19:20.848Z,76.70
2023-02-19T22:21:51.807Z,76.90
2023-02-19T22:24:23.514Z,77.62
2023-02-19T22:26:57.351Z,77.60
2023-02-19T22:29:27.305Z,77.46
2023-02-19T22:31:56.992Z,77.33
2023-02-19T22:34:26.511Z,76.88
2023-02-19T22:36:57.368Z,77.01
2023-02-19T22:39:28.424Z,78.06
2023-02-19T22:41:57.973Z,77.14
2023-02-19T22:44:27.445Z,76.84
2023-02-19T22:46:58.333Z,76.76
2023-02-19T22:49:27.741Z,76.68
2023-02-19T22:52:04.605Z,76.58
2023-02-19T22:54:34.139Z,77.97
2023-02-19T22:57:03.408Z,77.76
2023-02-19T22:59:33.127Z,77.96
2023-02-19T23:02:02.565Z,76.93
2023-02-19T23:04:32.016Z,77.26
2023-02-19T23:07:02.941Z,76.61
2023-02-19T23:09:32.609Z,76.38
2023-02-19T23:12:07.705Z,76.59
2023-02-19T23:14:37.890Z,77.19
2023-02-19T23:17:07.476Z,78.27
2023-02-19T23:19:38.051Z,77.48
2023-02-19T23:22:09.275Z,77.35
2023-02-19T23:24:38.690Z,78.76
2023-02-19T23:27:08.033Z,79.12
2023-02-19T23:29:37.326Z,77.58
2023-02-19T23:32:07.038Z,77.54
2023-02-19T23:34:37.294Z,77.82
2023-02-19T23:37:08.102Z,77.39
2023-02-19T23:39:37.414Z,77.33
2023-02-19T23:42:06.824Z,76.91
2023-02-19T23:44:36.287Z,77.10
2023-02-19T23:47:05.642Z,77.02
2023-02-19T23:49:35.153Z,76.40
2023-02-19T23:52:04.648Z,75.62
2023-02-19T23:54:35.451Z,74.80
2023-02-19T23:57:04.909Z,74.72
2023-02-19T23:59:34.209Z,74.64
